Terminal Aerodrome Forecast
Issued by NWS

Home | Current Version | Previous Version | Text Only | Print | Product List | Glossary On
Versions: 1 2 3 4 5 6 7 8 9 10 11 12 13 14 15 16 17 18 19 20 21 22 23 24
000
FTUS43 KGRR 250100 AAB
TAFBTL
TAF AMD
KBTL 250112Z 2501/2524 26010KT 5SM -SN BR OVC006
     FM250400 25012KT 6SM -SN BR OVC007
     FM250700 25011KT P6SM OVC015
     FM251200 24009KT P6SM OVC025
     FM252100 20010KT P6SM OVC250=

USA.gov is the U.S. government's official web portal to all federal, state and local government web resources and services.